sensor_id;sensor_type;location;lat;lon;timestamp;pressure;altitude;pressure_sealevel;temperature;humidity
6343;BME280;3204;42.698;23.298;2023-03-03T00:01:10;94947.66;;;5.10;91.65
6343;BME280;3204;42.698;23.298;2023-03-03T00:03:36;94945.00;;;5.05;92.06
6343;BME280;3204;42.698;23.298;2023-03-03T00:06:03;94946.06;;;5.04;92.68
6343;BME280;3204;42.698;23.298;2023-03-03T00:08:29;94942.09;;;4.91;92.50
6343;BME280;3204;42.698;23.298;2023-03-03T00:10:57;94944.50;;;4.98;92.37
6343;BME280;3204;42.698;23.298;2023-03-03T00:13:24;94940.72;;;4.99;92.78
6343;BME280;3204;42.698;23.298;2023-03-03T00:15:51;94938.88;;;4.94;93.44
6343;BME280;3204;42.698;23.298;2023-03-03T00:20:54;94938.06;;;4.94;93.47
6343;BME280;3204;42.698;23.298;2023-03-03T00:23:30;94928.91;;;4.95;93.60
6343;BME280;3204;42.698;23.298;2023-03-03T00:25:59;94936.44;;;4.98;93.39
6343;BME280;3204;42.698;23.298;2023-03-03T00:28:30;94934.81;;;5.02;92.88
6343;BME280;3204;42.698;23.298;2023-03-03T00:31:00;94937.22;;;5.03;93.13
6343;BME280;3204;42.698;23.298;2023-03-03T00:33:35;94928.34;;;5.08;93.20
6343;BME280;3204;42.698;23.298;2023-03-03T00:36:30;94934.25;;;5.00;93.02
6343;BME280;3204;42.698;23.298;2023-03-03T00:39:09;94926.78;;;4.97;93.45
6343;BME280;3204;42.698;23.298;2023-03-03T00:41:38;94924.06;;;5.02;93.47
6343;BME280;3204;42.698;23.298;2023-03-03T00:47:02;94917.75;;;5.31;92.39
6343;BME280;3204;42.698;23.298;2023-03-03T00:49:38;94916.72;;;5.22;92.47
6343;BME280;3204;42.698;23.298;2023-03-03T00:52:12;94908.56;;;5.37;92.20
6343;BME280;3204;42.698;23.298;2023-03-03T00:54:39;94901.31;;;5.33;91.95
6343;BME280;3204;42.698;23.298;2023-03-03T00:57:05;94898.38;;;5.29;92.45
6343;BME280;3204;42.698;23.298;2023-03-03T00:59:31;94894.44;;;5.17;92.91
6343;BME280;3204;42.698;23.298;2023-03-03T01:01:56;94892.28;;;5.14;92.80
6343;BME280;3204;42.698;23.298;2023-03-03T01:04:22;94883.16;;;5.15;93.40
6343;BME280;3204;42.698;23.298;2023-03-03T01:06:47;94878.28;;;5.22;93.12
6343;BME280;3204;42.698;23.298;2023-03-03T01:09:14;94872.41;;;5.10;93.40
6343;BME280;3204;42.698;23.298;2023-03-03T01:11:39;94884.50;;;5.12;93.93
6343;BME280;3204;42.698;23.298;2023-03-03T01:14:05;94876.44;;;5.12;93.54
6343;BME280;3204;42.698;23.298;2023-03-03T01:16:30;94882.38;;;5.09;93.67
6343;BME280;3204;42.698;23.298;2023-03-03T01:18:57;94884.03;;;5.00;94.33
6343;BME280;3204;42.698;23.298;2023-03-03T01:21:22;94877.06;;;4.94;94.31
6343;BME280;3204;42.698;23.298;2023-03-03T01:23:48;94876.81;;;4.96;94.44
6343;BME280;3204;42.698;23.298;2023-03-03T01:26:13;94875.19;;;4.90;94.81
6343;BME280;3204;42.698;23.298;2023-03-03T01:28:39;94873.06;;;4.87;95.07
6343;BME280;3204;42.698;23.298;2023-03-03T01:31:05;94884.25;;;5.04;94.50
6343;BME280;3204;42.698;23.298;2023-03-03T01:33:31;94883.16;;;5.10;93.79
6343;BME280;3204;42.698;23.298;2023-03-03T01:35:57;94880.28;;;4.96;94.38
6343;BME280;3204;42.698;23.298;2023-03-03T01:38:23;94873.00;;;5.02;94.39
6343;BME280;3204;42.698;23.298;2023-03-03T01:40:54;94874.00;;;5.16;94.28
6343;BME280;3204;42.698;23.298;2023-03-03T01:43:20;94871.31;;;5.16;93.35
6343;BME280;3204;42.698;23.298;2023-03-03T01:48:22;94878.25;;;5.27;93.06
6343;BME280;3204;42.698;23.298;2023-03-03T01:50:51;94873.66;;;5.32;93.36
6343;BME280;3204;42.698;23.298;2023-03-03T01:53:29;94874.69;;;5.41;92.36
6343;BME280;3204;42.698;23.298;2023-03-03T01:55:58;94873.03;;;5.40;92.17
6343;BME280;3204;42.698;23.298;2023-03-03T01:58:28;94876.34;;;5.32;92.01
6343;BME280;3204;42.698;23.298;2023-03-03T02:01:01;94867.28;;;5.18;91.72
6343;BME280;3204;42.698;23.298;2023-03-03T02:03:28;94863.47;;;5.24;92.37
6343;BME280;3204;42.698;23.298;2023-03-03T02:05:56;94874.28;;;5.14;92.26
6343;BME280;3204;42.698;23.298;2023-03-03T02:08:30;94872.41;;;5.15;92.71
6343;BME280;3204;42.698;23.298;2023-03-03T02:10:59;94867.03;;;5.15;92.63
6343;BME280;3204;42.698;23.298;2023-03-03T02:13:26;94865.38;;;5.19;92.68
6343;BME280;3204;42.698;23.298;2023-03-03T02:15:51;94865.91;;;5.21;93.10
6343;BME280;3204;42.698;23.298;2023-03-03T02:18:18;94859.44;;;5.22;92.74
6343;BME280;3204;42.698;23.298;2023-03-03T02:21:09;94872.31;;;5.30;92.43
6343;BME280;3204;42.698;23.298;2023-03-03T02:26:14;94867.59;;;5.07;92.99
6343;BME280;3204;42.698;23.298;2023-03-03T02:28:41;94863.56;;;5.09;93.02
6343;BME280;3204;42.698;23.298;2023-03-03T02:31:10;94867.31;;;5.13;92.63
6343;BME280;3204;42.698;23.298;2023-03-03T02:33:38;94867.91;;;5.00;92.79
6343;BME280;3204;42.698;23.298;2023-03-03T02:36:04;94860.09;;;4.99;92.86
6343;BME280;3204;42.698;23.298;2023-03-03T02:38:36;94853.63;;;5.05;92.63
6343;BME280;3204;42.698;23.298;2023-03-03T02:41:29;94862.75;;;5.09;92.10
6343;BME280;3204;42.698;23.298;2023-03-03T02:44:01;94857.13;;;5.05;91.87
6343;BME280;3204;42.698;23.298;2023-03-03T02:46:31;94862.50;;;5.05;92.47
6343;BME280;3204;42.698;23.298;2023-03-03T02:48:57;94866.75;;;5.11;92.29
6343;BME280;3204;42.698;23.298;2023-03-03T02:51:23;94860.63;;;5.06;92.13
6343;BME280;3204;42.698;23.298;2023-03-03T02:53:48;94862.22;;;5.07;92.03
6343;BME280;3204;42.698;23.298;2023-03-03T02:56:14;94868.91;;;5.14;91.94
6343;BME280;3204;42.698;23.298;2023-03-03T02:58:39;94856.00;;;5.11;92.19
6343;BME280;3204;42.698;23.298;2023-03-03T03:01:05;94864.34;;;5.15;92.28
6343;BME280;3204;42.698;23.298;2023-03-03T03:03:31;94862.34;;;5.30;92.01
6343;BME280;3204;42.698;23.298;2023-03-03T03:05:56;94857.78;;;5.31;91.69
6343;BME280;3204;42.698;23.298;2023-03-03T03:08:22;94857.22;;;5.39;90.67
6343;BME280;3204;42.698;23.298;2023-03-03T03:10:48;94856.72;;;5.27;90.65
6343;BME280;3204;42.698;23.298;2023-03-03T03:13:13;94855.69;;;5.23;91.67
6343;BME280;3204;42.698;23.298;2023-03-03T03:15:39;94855.69;;;5.23;92.10
6343;BME280;3204;42.698;23.298;2023-03-03T03:18:05;94852.75;;;5.19;91.85
6343;BME280;3204;42.698;23.298;2023-03-03T03:20:34;94856.22;;;5.25;91.73
6343;BME280;3204;42.698;23.298;2023-03-03T03:22:59;94855.72;;;5.18;92.05
6343;BME280;3204;42.698;23.298;2023-03-03T03:25:25;94851.13;;;5.23;92.16
6343;BME280;3204;42.698;23.298;2023-03-03T03:27:50;94853.84;;;5.18;92.01
6343;BME280;3204;42.698;23.298;2023-03-03T03:30:16;94853.31;;;5.11;92.53
6343;BME280;3204;42.698;23.298;2023-03-03T03:32:45;94852.72;;;5.24;92.80
6343;BME280;3204;42.698;23.298;2023-03-03T03:35:10;94850.88;;;5.20;92.36
6343;BME280;3204;42.698;23.298;2023-03-03T03:37:36;94849.78;;;5.21;92.83
6343;BME280;3204;42.698;23.298;2023-03-03T03:40:02;94847.81;;;5.36;92.33
6343;BME280;3204;42.698;23.298;2023-03-03T03:42:27;94837.31;;;5.40;93.12
6343;BME280;3204;42.698;23.298;2023-03-03T03:44:53;94843.50;;;5.35;92.39
6343;BME280;3204;42.698;23.298;2023-03-03T03:47:18;94841.91;;;5.34;92.84
6343;BME280;3204;42.698;23.298;2023-03-03T03:49:44;94837.56;;;5.38;92.42
6343;BME280;3204;42.698;23.298;2023-03-03T03:52:09;94835.44;;;5.35;91.91
6343;BME280;3204;42.698;23.298;2023-03-03T03:54:35;94836.00;;;5.32;91.98
6343;BME280;3204;42.698;23.298;2023-03-03T03:57:01;94830.44;;;5.19;92.21
6343;BME280;3204;42.698;23.298;2023-03-03T03:59:26;94833.69;;;5.16;92.58
6343;BME280;3204;42.698;23.298;2023-03-03T04:01:52;94829.09;;;5.16;93.99
6343;BME280;3204;42.698;23.298;2023-03-03T04:04:17;94833.44;;;5.12;94.40
6343;BME280;3204;42.698;23.298;2023-03-03T04:06:43;94828.69;;;5.38;94.20
6343;BME280;3204;42.698;23.298;2023-03-03T04:09:08;94831.88;;;5.45;93.70
6343;BME280;3204;42.698;23.298;2023-03-03T04:11:34;94825.25;;;5.32;93.06
6343;BME280;3204;42.698;23.298;2023-03-03T04:13:59;94835.66;;;5.44;93.24
6343;BME280;3204;42.698;23.298;2023-03-03T04:16:25;94827.94;;;5.32;93.36
6343;BME280;3204;42.698;23.298;2023-03-03T04:18:50;94815.56;;;5.36;93.71
6343;BME280;3204;42.698;23.298;2023-03-03T04:21:16;94830.66;;;5.27;94.02
6343;BME280;3204;42.698;23.298;2023-03-03T04:23:41;94827.91;;;5.37;93.71
6343;BME280;3204;42.698;23.298;2023-03-03T04:26:08;94834.88;;;5.38;94.46
6343;BME280;3204;42.698;23.298;2023-03-03T04:28:33;94828.09;;;5.46;94.22
6343;BME280;3204;42.698;23.298;2023-03-03T04:30:59;94828.66;;;5.43;93.87
6343;BME280;3204;42.698;23.298;2023-03-03T04:33:25;94820.69;;;5.28;93.97
6343;BME280;3204;42.698;23.298;2023-03-03T04:35:50;94819.59;;;5.34;93.97
6343;BME280;3204;42.698;23.298;2023-03-03T04:38:15;94821.25;;;5.30;93.91
6343;BME280;3204;42.698;23.298;2023-03-03T04:40:41;94828.41;;;5.39;94.24
6343;BME280;3204;42.698;23.298;2023-03-03T04:43:08;94819.59;;;5.29;94.24
6343;BME280;3204;42.698;23.298;2023-03-03T04:45:34;94824.97;;;5.29;94.48
6343;BME280;3204;42.698;23.298;2023-03-03T04:47:59;94830.34;;;5.29;94.49
6343;BME280;3204;42.698;23.298;2023-03-03T04:50:25;94820.41;;;5.29;94.42
6343;BME280;3204;42.698;23.298;2023-03-03T04:52:50;94823.69;;;5.21;94.65
6343;BME280;3204;42.698;23.298;2023-03-03T04:55:16;94820.16;;;5.31;95.01
6343;BME280;3204;42.698;23.298;2023-03-03T04:57:42;94821.94;;;5.40;95.13
6343;BME280;3204;42.698;23.298;2023-03-03T05:00:09;94826.00;;;5.38;95.21
6343;BME280;3204;42.698;23.298;2023-03-03T05:02:34;94832.44;;;5.42;94.95
6343;BME280;3204;42.698;23.298;2023-03-03T05:05:00;94832.94;;;5.49;94.40
6343;BME280;3204;42.698;23.298;2023-03-03T05:07:25;94827.53;;;5.54;94.72
6343;BME280;3204;42.698;23.298;2023-03-03T05:09:51;94832.63;;;5.55;94.94
6343;BME280;3204;42.698;23.298;2023-03-03T05:12:16;94838.13;;;5.35;94.55
6343;BME280;3204;42.698;23.298;2023-03-03T05:14:42;94837.81;;;5.42;95.22
6343;BME280;3204;42.698;23.298;2023-03-03T05:17:08;94836.75;;;5.38;95.06
6343;BME280;3204;42.698;23.298;2023-03-03T05:19:33;94836.94;;;5.51;95.44
6343;BME280;3204;42.698;23.298;2023-03-03T05:21:59;94835.50;;;5.64;94.94
6343;BME280;3204;42.698;23.298;2023-03-03T05:24:26;94836.09;;;5.56;94.79
6343;BME280;3204;42.698;23.298;2023-03-03T05:26:51;94836.91;;;5.56;95.29
6343;BME280;3204;42.698;23.298;2023-03-03T05:29:17;94835.28;;;5.60;94.87
6343;BME280;3204;42.698;23.298;2023-03-03T05:31:42;94835.97;;;5.71;93.81
6343;BME280;3204;42.698;23.298;2023-03-03T05:34:08;94846.09;;;5.50;93.57
6343;BME280;3204;42.698;23.298;2023-03-03T05:36:34;94846.16;;;5.40;94.08
6343;BME280;3204;42.698;23.298;2023-03-03T05:38:59;94842.06;;;5.48;93.62
6343;BME280;3204;42.698;23.298;2023-03-03T05:41:25;94841.31;;;5.42;94.65
6343;BME280;3204;42.698;23.298;2023-03-03T05:43:50;94844.50;;;5.44;95.15
6343;BME280;3204;42.698;23.298;2023-03-03T05:46:16;94843.34;;;5.60;94.11
6343;BME280;3204;42.698;23.298;2023-03-03T05:48:41;94848.28;;;5.43;93.64
6343;BME280;3204;42.698;23.298;2023-03-03T05:51:07;94852.63;;;5.39;94.64
6343;BME280;3204;42.698;23.298;2023-03-03T05:53:33;94849.69;;;5.36;95.06
6343;BME280;3204;42.698;23.298;2023-03-03T05:55:58;94854.22;;;5.40;95.33
6343;BME280;3204;42.698;23.298;2023-03-03T05:58:24;94850.75;;;5.40;95.45
6343;BME280;3204;42.698;23.298;2023-03-03T06:00:49;94854.38;;;5.59;94.94
6343;BME280;3204;42.698;23.298;2023-03-03T06:03:15;94847.59;;;5.66;95.07
6343;BME280;3204;42.698;23.298;2023-03-03T06:05:41;94851.66;;;5.64;95.07
6343;BME280;3204;42.698;23.298;2023-03-03T06:08:06;94845.63;;;5.82;94.14
6343;BME280;3204;42.698;23.298;2023-03-03T06:10:32;94850.69;;;5.83;94.09
6343;BME280;3204;42.698;23.298;2023-03-03T06:12:57;94851.19;;;5.90;93.47
6343;BME280;3204;42.698;23.298;2023-03-03T06:15:23;94855.59;;;5.76;94.06
6343;BME280;3204;42.698;23.298;2023-03-03T06:17:49;94852.63;;;5.78;94.95
6343;BME280;3204;42.698;23.298;2023-03-03T06:20:14;94852.06;;;5.86;94.81
6343;BME280;3204;42.698;23.298;2023-03-03T06:22:40;94864.94;;;5.89;93.17
6343;BME280;3204;42.698;23.298;2023-03-03T06:25:06;94855.81;;;5.80;92.66
6343;BME280;3204;42.698;23.298;2023-03-03T06:27:31;94867.47;;;5.70;92.36
6343;BME280;3204;42.698;23.298;2023-03-03T06:29:57;94867.22;;;5.67;92.12
6343;BME280;3204;42.698;23.298;2023-03-03T06:32:22;94862.13;;;5.65;92.93
6343;BME280;3204;42.698;23.298;2023-03-03T06:34:48;94864.47;;;5.77;93.54
6343;BME280;3204;42.698;23.298;2023-03-03T06:37:13;94866.59;;;5.80;93.21
6343;BME280;3204;42.698;23.298;2023-03-03T06:39:39;94861.41;;;5.93;93.62
6343;BME280;3204;42.698;23.298;2023-03-03T06:42:04;94862.28;;;5.84;93.38
6343;BME280;3204;42.698;23.298;2023-03-03T06:44:30;94869.19;;;5.95;93.71
6343;BME280;3204;42.698;23.298;2023-03-03T06:46:56;94866.03;;;6.16;93.08
6343;BME280;3204;42.698;23.298;2023-03-03T06:49:22;94865.38;;;6.01;93.68
6343;BME280;3204;42.698;23.298;2023-03-03T06:51:47;94874.41;;;6.15;90.92
6343;BME280;3204;42.698;23.298;2023-03-03T06:54:15;94868.81;;;6.06;91.50
6343;BME280;3204;42.698;23.298;2023-03-03T06:56:42;94870.84;;;5.91;91.63
6343;BME280;3204;42.698;23.298;2023-03-03T06:59:21;94870.22;;;5.99;92.43
6343;BME280;3204;42.698;23.298;2023-03-03T07:01:48;94875.09;;;5.97;90.41
6343;BME280;3204;42.698;23.298;2023-03-03T07:04:31;94875.88;;;5.97;90.93
6343;BME280;3204;42.698;23.298;2023-03-03T07:07:07;94881.56;;;5.96;89.84
6343;BME280;3204;42.698;23.298;2023-03-03T07:09:35;94869.75;;;5.92;91.54
6343;BME280;3204;42.698;23.298;2023-03-03T07:12:08;94872.88;;;6.04;92.52
6343;BME280;3204;42.698;23.298;2023-03-03T07:14:43;94872.28;;;6.12;93.26
6343;BME280;3204;42.698;23.298;2023-03-03T07:17:14;94865.59;;;6.33;92.08
6343;BME280;3204;42.698;23.298;2023-03-03T07:19:42;94870.19;;;6.32;91.53
6343;BME280;3204;42.698;23.298;2023-03-03T07:22:19;94873.72;;;6.28;91.10
6343;BME280;3204;42.698;23.298;2023-03-03T07:24:50;94873.34;;;6.39;90.14
6343;BME280;3204;42.698;23.298;2023-03-03T07:27:28;94876.47;;;6.23;89.31
6343;BME280;3204;42.698;23.298;2023-03-03T07:30:27;94869.41;;;6.03;90.95
6343;BME280;3204;42.698;23.298;2023-03-03T07:32:55;94871.38;;;6.21;91.07
6343;BME280;3204;42.698;23.298;2023-03-03T07:37:53;94865.38;;;6.29;92.03
6343;BME280;3204;42.698;23.298;2023-03-03T07:40:47;94868.13;;;6.24;90.50
6343;BME280;3204;42.698;23.298;2023-03-03T07:43:36;94864.53;;;6.34;91.32
6343;BME280;3204;42.698;23.298;2023-03-03T07:48:49;94856.03;;;6.50;89.89
6343;BME280;3204;42.698;23.298;2023-03-03T07:51:26;94865.97;;;6.50;90.92
6343;BME280;3204;42.698;23.298;2023-03-03T07:54:53;94860.59;;;6.50;90.76
6343;BME280;3204;42.698;23.298;2023-03-03T07:57:25;94860.91;;;6.72;90.58
6343;BME280;3204;42.698;23.298;2023-03-03T07:59:54;94859.38;;;6.61;89.20
6343;BME280;3204;42.698;23.298;2023-03-03T08:04:53;94859.09;;;6.62;89.08
6343;BME280;3204;42.698;23.298;2023-03-03T08:07:20;94859.16;;;6.57;89.35
6343;BME280;3204;42.698;23.298;2023-03-03T08:12:37;94856.13;;;6.64;90.65
6343;BME280;3204;42.698;23.298;2023-03-03T08:15:16;94854.97;;;6.70;91.05
6343;BME280;3204;42.698;23.298;2023-03-03T08:17:42;94849.03;;;6.73;90.68
6343;BME280;3204;42.698;23.298;2023-03-03T08:22:53;94849.88;;;6.92;90.80
6343;BME280;3204;42.698;23.298;2023-03-03T08:25:19;94847.06;;;7.02;90.98
6343;BME280;3204;42.698;23.298;2023-03-03T08:27:44;94844.28;;;7.07;90.92
6343;BME280;3204;42.698;23.298;2023-03-03T08:30:11;94846.47;;;7.05;88.45
6343;BME280;3204;42.698;23.298;2023-03-03T08:32:36;94854.16;;;7.16;88.34
6343;BME280;3204;42.698;23.298;2023-03-03T08:35:01;94846.00;;;7.21;88.94
6343;BME280;3204;42.698;23.298;2023-03-03T08:37:27;94844.00;;;7.27;88.28
6343;BME280;3204;42.698;23.298;2023-03-03T08:39:52;94848.53;;;7.13;87.96
6343;BME280;3204;42.698;23.298;2023-03-03T08:42:18;94842.75;;;7.01;87.83
6343;BME280;3204;42.698;23.298;2023-03-03T08:44:44;94849.25;;;7.00;88.33
6343;BME280;3204;42.698;23.298;2023-03-03T08:47:09;94853.25;;;6.79;87.43
6343;BME280;3204;42.698;23.298;2023-03-03T08:49:34;94852.81;;;6.72;88.57
6343;BME280;3204;42.698;23.298;2023-03-03T08:52:00;94849.97;;;6.58;88.01
6343;BME280;3204;42.698;23.298;2023-03-03T08:54:27;94846.03;;;6.51;89.56
6343;BME280;3204;42.698;23.298;2023-03-03T08:56:53;94854.06;;;6.56;90.08
6343;BME280;3204;42.698;23.298;2023-03-03T08:59:18;94848.31;;;6.62;89.41
6343;BME280;3204;42.698;23.298;2023-03-03T09:01:44;94849.38;;;6.66;89.29
6343;BME280;3204;42.698;23.298;2023-03-03T09:04:10;94844.72;;;6.72;89.04
6343;BME280;3204;42.698;23.298;2023-03-03T09:06:35;94846.84;;;6.75;90.25
6343;BME280;3204;42.698;23.298;2023-03-03T09:09:01;94841.25;;;6.90;91.21
6343;BME280;3204;42.698;23.298;2023-03-03T09:11:28;94842.09;;;7.09;89.99
6343;BME280;3204;42.698;23.298;2023-03-03T09:14:16;94836.84;;;6.99;89.24
6343;BME280;3204;42.698;23.298;2023-03-03T09:16:49;94841.03;;;6.86;89.70
6343;BME280;3204;42.698;23.298;2023-03-03T09:19:32;94845.28;;;6.92;91.11
6343;BME280;3204;42.698;23.298;2023-03-03T09:22:22;94835.81;;;6.95;91.46
6343;BME280;3204;42.698;23.298;2023-03-03T09:24:50;94839.78;;;7.21;90.10
6343;BME280;3204;42.698;23.298;2023-03-03T09:27:33;94837.84;;;7.26;90.58
6343;BME280;3204;42.698;23.298;2023-03-03T09:32:51;94841.78;;;7.34;89.51
6343;BME280;3204;42.698;23.298;2023-03-03T09:37:51;94845.34;;;7.48;88.12
6343;BME280;3204;42.698;23.298;2023-03-03T09:40:50;94840.38;;;7.55;89.25
6343;BME280;3204;42.698;23.298;2023-03-03T09:43:35;94834.91;;;7.60;89.66
6343;BME280;3204;42.698;23.298;2023-03-03T09:46:26;94846.28;;;7.75;87.11
6343;BME280;3204;42.698;23.298;2023-03-03T09:49:09;94852.78;;;7.56;86.96
6343;BME280;3204;42.698;23.298;2023-03-03T09:57:51;94847.22;;;7.66;86.75
6343;BME280;3204;42.698;23.298;2023-03-03T10:06:24;94836.63;;;7.88;86.32
6343;BME280;3204;42.698;23.298;2023-03-03T10:14:35;94837.47;;;8.02;85.84
6343;BME280;3204;42.698;23.298;2023-03-03T10:23:45;94833.38;;;8.04;87.76
6343;BME280;3204;42.698;23.298;2023-03-03T10:36:36;94822.59;;;8.18;86.09
6343;BME280;3204;42.698;23.298;2023-03-03T10:42:27;94820.81;;;8.13;86.61
6343;BME280;3204;42.698;23.298;2023-03-03T10:50:30;94816.88;;;8.06;87.15
6343;BME280;3204;42.698;23.298;2023-03-03T10:56:01;94813.72;;;8.17;86.44
6343;BME280;3204;42.698;23.298;2023-03-03T11:07:05;94803.38;;;8.06;86.32
6343;BME280;3204;42.698;23.298;2023-03-03T11:09:45;94796.88;;;8.07;87.15
6343;BME280;3204;42.698;23.298;2023-03-03T11:12:28;94797.16;;;8.05;87.05
6343;BME280;3204;42.698;23.298;2023-03-03T11:17:43;94798.47;;;8.26;84.73
6343;BME280;3204;42.698;23.298;2023-03-03T11:22:53;94782.78;;;8.10;86.00
6343;BME280;3204;42.698;23.298;2023-03-03T11:25:32;94781.66;;;7.97;85.92
6343;BME280;3204;42.698;23.298;2023-03-03T11:28:07;94779.72;;;7.84;87.32
6343;BME280;3204;42.698;23.298;2023-03-03T11:31:01;94777.97;;;7.93;87.76
6343;BME280;3204;42.698;23.298;2023-03-03T11:36:17;94776.19;;;8.02;87.54
6343;BME280;3204;42.698;23.298;2023-03-03T11:39:19;94777.97;;;7.93;87.41
6343;BME280;3204;42.698;23.298;2023-03-03T11:44:32;94773.84;;;7.96;88.80
6343;BME280;3204;42.698;23.298;2023-03-03T11:47:08;94765.38;;;8.02;88.85
6343;BME280;3204;42.698;23.298;2023-03-03T11:52:49;94769.00;;;8.11;87.52
6343;BME280;3204;42.698;23.298;2023-03-03T11:55:28;94763.19;;;8.18;87.99
6343;BME280;3204;42.698;23.298;2023-03-03T12:00:51;94765.09;;;8.17;87.61
6343;BME280;3204;42.698;23.298;2023-03-03T12:03:33;94764.22;;;8.22;88.51
6343;BME280;3204;42.698;23.298;2023-03-03T12:06:24;94760.09;;;8.11;87.82
6343;BME280;3204;42.698;23.298;2023-03-03T12:11:53;94761.88;;;8.15;89.94
6343;BME280;3204;42.698;23.298;2023-03-03T12:23:15;94766.94;;;8.22;88.82
6343;BME280;3204;42.698;23.298;2023-03-03T12:25:48;94772.69;;;8.15;88.28
6343;BME280;3204;42.698;23.298;2023-03-03T12:28:29;94767.16;;;8.25;88.72
6343;BME280;3204;42.698;23.298;2023-03-03T12:33:38;94761.94;;;7.97;89.89
6343;BME280;3204;42.698;23.298;2023-03-03T12:44:25;94768.56;;;7.91;90.09
6343;BME280;3204;42.698;23.298;2023-03-03T12:47:08;94765.03;;;7.90;90.42
6343;BME280;3204;42.698;23.298;2023-03-03T12:52:37;94765.75;;;7.96;91.04
6343;BME280;3204;42.698;23.298;2023-03-03T13:04:00;94762.63;;;7.89;89.92
6343;BME280;3204;42.698;23.298;2023-03-03T13:06:44;94764.06;;;7.68;90.53
6343;BME280;3204;42.698;23.298;2023-03-03T13:10:08;94754.59;;;7.70;90.81
6343;BME280;3204;42.698;23.298;2023-03-03T13:14:56;94764.31;;;7.53;92.47
6343;BME280;3204;42.698;23.298;2023-03-03T13:17:30;94751.94;;;7.52;93.55
6343;BME280;3204;42.698;23.298;2023-03-03T13:20:00;94751.63;;;7.53;93.78
6343;BME280;3204;42.698;23.298;2023-03-03T13:22:37;94747.97;;;7.63;93.25
6343;BME280;3204;42.698;23.298;2023-03-03T13:28:01;94745.34;;;7.58;93.97
6343;BME280;3204;42.698;23.298;2023-03-03T13:30:38;94739.25;;;7.66;92.97
6343;BME280;3204;42.698;23.298;2023-03-03T13:33:25;94740.25;;;7.88;95.39
6343;BME280;3204;42.698;23.298;2023-03-03T13:36:56;94744.97;;;8.10;96.28
6343;BME280;3204;42.698;23.298;2023-03-03T13:38:56;94753.41;;;8.22;93.37
6343;BME280;3204;42.698;23.298;2023-03-03T13:41:26;94755.34;;;8.21;92.74
6343;BME280;3204;42.698;23.298;2023-03-03T13:46:41;94743.97;;;7.92;92.49
6343;BME280;3204;42.698;23.298;2023-03-03T13:52:20;94734.13;;;7.83;93.73
6343;BME280;3204;42.698;23.298;2023-03-03T14:00:29;94740.06;;;7.66;93.86
6343;BME280;3204;42.698;23.298;2023-03-03T14:05:37;94742.66;;;7.90;93.89
6343;BME280;3204;42.698;23.298;2023-03-03T14:14:20;94747.03;;;7.86;92.87
6343;BME280;3204;42.698;23.298;2023-03-03T14:16:57;94746.44;;;7.89;93.54
6343;BME280;3204;42.698;23.298;2023-03-03T14:20:43;94739.34;;;7.93;92.66
6343;BME280;3204;42.698;23.298;2023-03-03T14:25:23;94737.16;;;7.95;92.11
6343;BME280;3204;42.698;23.298;2023-03-03T14:28:12;94732.94;;;7.89;92.65
6343;BME280;3204;42.698;23.298;2023-03-03T14:30:43;94731.84;;;7.90;92.93
6343;BME280;3204;42.698;23.298;2023-03-03T14:35:38;94734.84;;;8.02;92.62
6343;BME280;3204;42.698;23.298;2023-03-03T14:40:34;94732.44;;;8.00;92.73
6343;BME280;3204;42.698;23.298;2023-03-03T14:43:05;94729.38;;;8.07;92.44
6343;BME280;3204;42.698;23.298;2023-03-03T14:45:43;94726.84;;;8.10;92.21
6343;BME280;3204;42.698;23.298;2023-03-03T14:50:42;94735.28;;;8.09;91.66
6343;BME280;3204;42.698;23.298;2023-03-03T14:55:44;94725.56;;;8.08;91.36
6343;BME280;3204;42.698;23.298;2023-03-03T14:58:35;94727.34;;;7.99;91.58
6343;BME280;3204;42.698;23.298;2023-03-03T15:04:01;94715.75;;;8.12;90.96
6343;BME280;3204;42.698;23.298;2023-03-03T15:06:33;94727.16;;;7.95;91.49
6343;BME280;3204;42.698;23.298;2023-03-03T15:09:30;94725.44;;;7.86;91.67
6343;BME280;3204;42.698;23.298;2023-03-03T15:11:58;94740.53;;;7.87;91.50
6343;BME280;3204;42.698;23.298;2023-03-03T15:14:38;94726.84;;;7.83;92.57
6343;BME280;3204;42.698;23.298;2023-03-03T15:25:43;94725.72;;;7.84;92.05
6343;BME280;3204;42.698;23.298;2023-03-03T15:40:02;94734.59;;;7.71;91.72
6343;BME280;3204;42.698;23.298;2023-03-03T15:43:04;94726.69;;;7.75;92.29
6343;BME280;3204;42.698;23.298;2023-03-03T15:53:20;94746.94;;;7.59;91.63
6343;BME280;3204;42.698;23.298;2023-03-03T15:56:21;94741.47;;;7.64;92.09
6343;BME280;3204;42.698;23.298;2023-03-03T16:04:10;94741.38;;;7.69;92.56
6343;BME280;3204;42.698;23.298;2023-03-03T16:11:59;94755.25;;;7.62;92.94
6343;BME280;3204;42.698;23.298;2023-03-03T16:14:53;94766.50;;;7.69;91.93
6343;BME280;3204;42.698;23.298;2023-03-03T16:23:11;94767.78;;;7.72;91.93
6343;BME280;3204;42.698;23.298;2023-03-03T16:28:12;94754.28;;;7.72;91.55
6343;BME280;3204;42.698;23.298;2023-03-03T16:33:35;94768.63;;;7.86;91.70
6343;BME280;3204;42.698;23.298;2023-03-03T16:38:37;94764.28;;;7.71;91.98
6343;BME280;3204;42.698;23.298;2023-03-03T16:41:09;94770.06;;;7.65;92.10
6343;BME280;3204;42.698;23.298;2023-03-03T16:43:54;94781.47;;;7.62;92.48
6343;BME280;3204;42.698;23.298;2023-03-03T16:46:33;94785.03;;;7.57;93.23
6343;BME280;3204;42.698;23.298;2023-03-03T16:51:45;94784.44;;;7.60;92.89
6343;BME280;3204;42.698;23.298;2023-03-03T17:02:31;94807.63;;;7.61;93.33
6343;BME280;3204;42.698;23.298;2023-03-03T17:14:05;94806.06;;;7.74;92.52
6343;BME280;3204;42.698;23.298;2023-03-03T17:17:00;94800.38;;;7.75;93.00
6343;BME280;3204;42.698;23.298;2023-03-03T17:19:42;94802.00;;;7.76;92.64
6343;BME280;3204;42.698;23.298;2023-03-03T17:22:17;94802.28;;;7.75;92.58
6343;BME280;3204;42.698;23.298;2023-03-03T17:25:04;94811.47;;;7.74;93.06
6343;BME280;3204;42.698;23.298;2023-03-03T17:28:11;94813.06;;;7.75;93.31
6343;BME280;3204;42.698;23.298;2023-03-03T17:31:12;94815.19;;;7.78;92.04
6343;BME280;3204;42.698;23.298;2023-03-03T17:39:03;94825.59;;;7.71;92.62
6343;BME280;3204;42.698;23.298;2023-03-03T17:41:49;94830.44;;;7.69;93.28
6343;BME280;3204;42.698;23.298;2023-03-03T17:50:31;94843.72;;;7.84;92.37
6343;BME280;3204;42.698;23.298;2023-03-03T18:01:22;94849.34;;;7.87;91.26
6343;BME280;3204;42.698;23.298;2023-03-03T18:07:40;94848.91;;;7.80;92.08
6343;BME280;3204;42.698;23.298;2023-03-03T18:10:09;94852.78;;;7.74;91.63
6343;BME280;3204;42.698;23.298;2023-03-03T18:19:07;94863.22;;;7.81;91.44
6343;BME280;3204;42.698;23.298;2023-03-03T18:27:31;94867.22;;;7.83;91.51
6343;BME280;3204;42.698;23.298;2023-03-03T18:37:53;94873.19;;;7.80;91.84